sensor_id;sensor_type;location;lat;lon;timestamp;P1;durP1;ratioP1;P2;durP2;ratioP2
19189;SDS011;9727;50.200;19.038;2023-05-16T00:00:48;15.03;;;10.67;;
19189;SDS011;9727;50.200;19.038;2023-05-16T00:03:18;14.57;;;10.63;;
19189;SDS011;9727;50.200;19.038;2023-05-16T00:05:45;15.00;;;10.30;;
19189;SDS011;9727;50.200;19.038;2023-05-16T00:08:12;16.03;;;10.80;;
19189;SDS011;9727;50.200;19.038;2023-05-16T00:10:38;15.10;;;11.53;;
19189;SDS011;9727;50.200;19.038;2023-05-16T00:13:20;13.03;;;11.07;;
19189;SDS011;9727;50.200;19.038;2023-05-16T00:16:01;12.17;;;9.63;;
19189;SDS011;9727;50.200;19.038;2023-05-16T00:18:30;11.57;;;9.47;;
19189;SDS011;9727;50.200;19.038;2023-05-16T00:20:56;11.70;;;8.43;;
19189;SDS011;9727;50.200;19.038;2023-05-16T00:23:23;9.03;;;8.10;;
19189;SDS011;9727;50.200;19.038;2023-05-16T00:25:53;12.43;;;7.93;;
19189;SDS011;9727;50.200;19.038;2023-05-16T00:28:20;10.80;;;7.40;;
19189;SDS011;9727;50.200;19.038;2023-05-16T00:30:46;9.73;;;7.03;;
19189;SDS011;9727;50.200;19.038;2023-05-16T00:33:13;9.63;;;6.90;;
19189;SDS011;9727;50.200;19.038;2023-05-16T00:35:41;8.10;;;6.63;;
19189;SDS011;9727;50.200;19.038;2023-05-16T00:38:07;10.23;;;6.63;;
19189;SDS011;9727;50.200;19.038;2023-05-16T00:40:34;9.00;;;6.67;;
19189;SDS011;9727;50.200;19.038;2023-05-16T00:43:01;9.90;;;6.70;;
19189;SDS011;9727;50.200;19.038;2023-05-16T00:45:27;9.50;;;6.90;;
19189;SDS011;9727;50.200;19.038;2023-05-16T00:47:54;8.67;;;6.77;;
19189;SDS011;9727;50.200;19.038;2023-05-16T00:50:21;10.57;;;6.43;;
19189;SDS011;9727;50.200;19.038;2023-05-16T00:52:49;8.90;;;6.80;;
19189;SDS011;9727;50.200;19.038;2023-05-16T00:55:16;8.13;;;6.83;;
19189;SDS011;9727;50.200;19.038;2023-05-16T00:57:43;9.50;;;6.10;;
19189;SDS011;9727;50.200;19.038;2023-05-16T01:00:10;8.87;;;6.80;;
19189;SDS011;9727;50.200;19.038;2023-05-16T01:02:39;9.63;;;6.07;;
19189;SDS011;9727;50.200;19.038;2023-05-16T01:05:06;11.37;;;6.90;;
19189;SDS011;9727;50.200;19.038;2023-05-16T01:07:33;7.67;;;6.30;;
19189;SDS011;9727;50.200;19.038;2023-05-16T01:10:05;9.30;;;7.27;;
19189;SDS011;9727;50.200;19.038;2023-05-16T01:12:36;11.87;;;9.33;;
19189;SDS011;9727;50.200;19.038;2023-05-16T01:15:04;17.83;;;13.53;;
19189;SDS011;9727;50.200;19.038;2023-05-16T01:17:35;14.63;;;11.40;;
19189;SDS011;9727;50.200;19.038;2023-05-16T01:20:05;12.87;;;11.20;;
19189;SDS011;9727;50.200;19.038;2023-05-16T01:22:51;14.93;;;11.17;;
19189;SDS011;9727;50.200;19.038;2023-05-16T01:25:30;22.00;;;14.93;;
19189;SDS011;9727;50.200;19.038;2023-05-16T01:27:59;20.57;;;17.60;;
19189;SDS011;9727;50.200;19.038;2023-05-16T01:30:31;22.20;;;17.73;;
19189;SDS011;9727;50.200;19.038;2023-05-16T01:32:59;16.93;;;14.63;;
19189;SDS011;9727;50.200;19.038;2023-05-16T01:35:28;16.50;;;13.13;;
19189;SDS011;9727;50.200;19.038;2023-05-16T01:37:57;14.17;;;12.13;;
19189;SDS011;9727;50.200;19.038;2023-05-16T01:40:28;14.00;;;12.03;;
19189;SDS011;9727;50.200;19.038;2023-05-16T01:42:55;16.37;;;12.07;;
19189;SDS011;9727;50.200;19.038;2023-05-16T01:45:40;16.90;;;14.30;;
19189;SDS011;9727;50.200;19.038;2023-05-16T01:48:09;17.33;;;14.63;;
19189;SDS011;9727;50.200;19.038;2023-05-16T01:50:40;15.70;;;13.33;;
19189;SDS011;9727;50.200;19.038;2023-05-16T01:53:08;14.20;;;12.70;;
19189;SDS011;9727;50.200;19.038;2023-05-16T01:55:38;14.83;;;11.53;;
19189;SDS011;9727;50.200;19.038;2023-05-16T01:58:08;10.77;;;9.53;;
19189;SDS011;9727;50.200;19.038;2023-05-16T02:00:36;13.87;;;11.00;;
19189;SDS011;9727;50.200;19.038;2023-05-16T02:03:03;12.63;;;10.83;;
19189;SDS011;9727;50.200;19.038;2023-05-16T02:05:32;15.03;;;11.47;;
19189;SDS011;9727;50.200;19.038;2023-05-16T02:07:59;15.20;;;12.43;;
19189;SDS011;9727;50.200;19.038;2023-05-16T02:10:28;20.93;;;17.70;;
19189;SDS011;9727;50.200;19.038;2023-05-16T02:12:55;24.73;;;20.53;;
19189;SDS011;9727;50.200;19.038;2023-05-16T02:15:22;23.40;;;19.27;;
19189;SDS011;9727;50.200;19.038;2023-05-16T02:17:50;20.53;;;17.83;;
19189;SDS011;9727;50.200;19.038;2023-05-16T02:20:16;18.33;;;15.23;;
19189;SDS011;9727;50.200;19.038;2023-05-16T02:22:43;15.93;;;12.63;;
19189;SDS011;9727;50.200;19.038;2023-05-16T02:25:12;14.90;;;11.83;;
19189;SDS011;9727;50.200;19.038;2023-05-16T02:27:39;12.37;;;10.63;;
19189;SDS011;9727;50.200;19.038;2023-05-16T02:30:07;11.03;;;8.50;;
19189;SDS011;9727;50.200;19.038;2023-05-16T02:32:34;14.53;;;9.27;;
19189;SDS011;9727;50.200;19.038;2023-05-16T02:35:03;8.90;;;8.00;;
19189;SDS011;9727;50.200;19.038;2023-05-16T02:37:31;12.27;;;8.23;;
19189;SDS011;9727;50.200;19.038;2023-05-16T02:39:57;10.87;;;8.63;;
19189;SDS011;9727;50.200;19.038;2023-05-16T02:42:24;13.33;;;9.00;;
19189;SDS011;9727;50.200;19.038;2023-05-16T02:44:51;10.23;;;8.50;;
19189;SDS011;9727;50.200;19.038;2023-05-16T02:47:18;14.17;;;8.70;;
19189;SDS011;9727;50.200;19.038;2023-05-16T02:49:45;15.47;;;8.80;;
19189;SDS011;9727;50.200;19.038;2023-05-16T02:52:13;12.20;;;9.47;;
19189;SDS011;9727;50.200;19.038;2023-05-16T02:54:39;11.93;;;8.83;;
19189;SDS011;9727;50.200;19.038;2023-05-16T02:57:06;12.17;;;9.13;;
19189;SDS011;9727;50.200;19.038;2023-05-16T02:59:32;12.97;;;9.63;;
19189;SDS011;9727;50.200;19.038;2023-05-16T03:02:03;12.70;;;9.57;;
19189;SDS011;9727;50.200;19.038;2023-05-16T03:04:30;10.83;;;8.70;;
19189;SDS011;9727;50.200;19.038;2023-05-16T03:06:56;12.47;;;9.03;;
19189;SDS011;9727;50.200;19.038;2023-05-16T03:09:24;13.63;;;9.33;;
19189;SDS011;9727;50.200;19.038;2023-05-16T03:11:54;11.67;;;8.97;;
19189;SDS011;9727;50.200;19.038;2023-05-16T03:14:20;10.77;;;9.17;;
19189;SDS011;9727;50.200;19.038;2023-05-16T03:16:47;12.07;;;9.20;;
19189;SDS011;9727;50.200;19.038;2023-05-16T03:19:13;10.73;;;8.83;;
19189;SDS011;9727;50.200;19.038;2023-05-16T03:21:40;12.40;;;9.07;;
19189;SDS011;9727;50.200;19.038;2023-05-16T03:24:07;11.03;;;8.73;;
19189;SDS011;9727;50.200;19.038;2023-05-16T03:26:35;11.17;;;8.20;;
19189;SDS011;9727;50.200;19.038;2023-05-16T03:29:01;10.27;;;8.67;;
19189;SDS011;9727;50.200;19.038;2023-05-16T03:31:28;12.67;;;8.50;;
19189;SDS011;9727;50.200;19.038;2023-05-16T03:33:54;10.27;;;7.90;;
19189;SDS011;9727;50.200;19.038;2023-05-16T03:36:21;11.17;;;7.60;;
19189;SDS011;9727;50.200;19.038;2023-05-16T03:38:48;9.23;;;7.33;;
19189;SDS011;9727;50.200;19.038;2023-05-16T03:41:15;8.73;;;7.13;;
19189;SDS011;9727;50.200;19.038;2023-05-16T03:43:42;8.03;;;7.00;;
19189;SDS011;9727;50.200;19.038;2023-05-16T03:46:09;9.97;;;6.87;;
19189;SDS011;9727;50.200;19.038;2023-05-16T03:48:36;9.80;;;7.33;;
19189;SDS011;9727;50.200;19.038;2023-05-16T03:51:02;8.30;;;6.60;;
19189;SDS011;9727;50.200;19.038;2023-05-16T03:53:29;9.60;;;7.30;;
19189;SDS011;9727;50.200;19.038;2023-05-16T03:55:55;10.53;;;7.53;;
19189;SDS011;9727;50.200;19.038;2023-05-16T03:58:22;11.13;;;7.97;;
19189;SDS011;9727;50.200;19.038;2023-05-16T04:00:50;15.00;;;9.53;;
19189;SDS011;9727;50.200;19.038;2023-05-16T04:03:16;10.70;;;8.57;;
19189;SDS011;9727;50.200;19.038;2023-05-16T04:05:43;11.30;;;8.53;;
19189;SDS011;9727;50.200;19.038;2023-05-16T04:08:09;10.43;;;8.53;;
19189;SDS011;9727;50.200;19.038;2023-05-16T04:10:36;11.27;;;8.93;;
19189;SDS011;9727;50.200;19.038;2023-05-16T04:13:02;10.27;;;8.47;;
19189;SDS011;9727;50.200;19.038;2023-05-16T04:15:29;15.23;;;9.03;;
19189;SDS011;9727;50.200;19.038;2023-05-16T04:17:57;10.83;;;9.07;;
19189;SDS011;9727;50.200;19.038;2023-05-16T04:20:23;12.97;;;9.63;;
19189;SDS011;9727;50.200;19.038;2023-05-16T04:22:51;16.97;;;10.30;;
19189;SDS011;9727;50.200;19.038;2023-05-16T04:25:18;15.80;;;12.80;;
19189;SDS011;9727;50.200;19.038;2023-05-16T04:27:44;23.63;;;15.90;;
19189;SDS011;9727;50.200;19.038;2023-05-16T04:30:11;20.00;;;16.97;;
19189;SDS011;9727;50.200;19.038;2023-05-16T04:32:38;26.23;;;18.40;;
19189;SDS011;9727;50.200;19.038;2023-05-16T04:35:07;23.17;;;19.40;;
19189;SDS011;9727;50.200;19.038;2023-05-16T04:37:34;26.93;;;17.37;;
19189;SDS011;9727;50.200;19.038;2023-05-16T04:40:04;21.17;;;16.30;;
19189;SDS011;9727;50.200;19.038;2023-05-16T04:42:31;16.77;;;14.17;;
19189;SDS011;9727;50.200;19.038;2023-05-16T04:44:59;16.83;;;11.70;;
19189;SDS011;9727;50.200;19.038;2023-05-16T04:47:28;17.97;;;12.37;;
19189;SDS011;9727;50.200;19.038;2023-05-16T04:49:55;15.13;;;11.80;;
19189;SDS011;9727;50.200;19.038;2023-05-16T04:52:23;15.50;;;12.33;;
19189;SDS011;9727;50.200;19.038;2023-05-16T04:54:56;17.00;;;13.00;;
19189;SDS011;9727;50.200;19.038;2023-05-16T04:57:24;20.03;;;13.17;;
19189;SDS011;9727;50.200;19.038;2023-05-16T04:59:54;16.43;;;12.03;;
19189;SDS011;9727;50.200;19.038;2023-05-16T05:02:20;14.10;;;11.50;;
19189;SDS011;9727;50.200;19.038;2023-05-16T05:04:47;17.10;;;11.33;;
19189;SDS011;9727;50.200;19.038;2023-05-16T05:07:13;15.00;;;11.87;;
19189;SDS011;9727;50.200;19.038;2023-05-16T05:09:41;18.40;;;13.33;;
19189;SDS011;9727;50.200;19.038;2023-05-16T05:12:09;15.83;;;12.63;;
19189;SDS011;9727;50.200;19.038;2023-05-16T05:14:35;14.87;;;11.63;;
19189;SDS011;9727;50.200;19.038;2023-05-16T05:17:02;16.93;;;12.13;;
19189;SDS011;9727;50.200;19.038;2023-05-16T05:19:28;16.30;;;12.10;;
19189;SDS011;9727;50.200;19.038;2023-05-16T05:21:55;16.10;;;10.00;;
19189;SDS011;9727;50.200;19.038;2023-05-16T05:24:22;14.10;;;10.23;;
19189;SDS011;9727;50.200;19.038;2023-05-16T05:26:51;13.53;;;10.50;;
19189;SDS011;9727;50.200;19.038;2023-05-16T05:29:29;12.53;;;9.13;;
19189;SDS011;9727;50.200;19.038;2023-05-16T05:31:56;11.50;;;9.10;;
19189;SDS011;9727;50.200;19.038;2023-05-16T05:34:22;10.67;;;8.20;;
19189;SDS011;9727;50.200;19.038;2023-05-16T05:36:49;8.90;;;7.23;;
19189;SDS011;9727;50.200;19.038;2023-05-16T05:39:16;11.30;;;7.43;;
19189;SDS011;9727;50.200;19.038;2023-05-16T05:41:42;11.77;;;7.40;;
19189;SDS011;9727;50.200;19.038;2023-05-16T05:44:10;8.33;;;6.10;;
19189;SDS011;9727;50.200;19.038;2023-05-16T05:46:37;9.03;;;6.57;;
19189;SDS011;9727;50.200;19.038;2023-05-16T05:49:05;8.60;;;7.30;;
19189;SDS011;9727;50.200;19.038;2023-05-16T05:51:32;9.70;;;7.47;;
19189;SDS011;9727;50.200;19.038;2023-05-16T05:53:58;12.73;;;7.20;;
19189;SDS011;9727;50.200;19.038;2023-05-16T05:56:26;10.27;;;6.57;;
19189;SDS011;9727;50.200;19.038;2023-05-16T05:58:52;9.53;;;7.43;;
19189;SDS011;9727;50.200;19.038;2023-05-16T06:01:20;9.93;;;7.10;;
19189;SDS011;9727;50.200;19.038;2023-05-16T06:03:47;10.17;;;6.97;;
19189;SDS011;9727;50.200;19.038;2023-05-16T06:06:14;7.17;;;6.43;;
19189;SDS011;9727;50.200;19.038;2023-05-16T06:08:40;8.67;;;6.30;;
19189;SDS011;9727;50.200;19.038;2023-05-16T06:11:07;8.10;;;6.27;;
19189;SDS011;9727;50.200;19.038;2023-05-16T06:13:36;10.23;;;6.27;;
19189;SDS011;9727;50.200;19.038;2023-05-16T06:16:04;10.57;;;6.73;;
19189;SDS011;9727;50.200;19.038;2023-05-16T06:18:33;8.03;;;6.60;;
19189;SDS011;9727;50.200;19.038;2023-05-16T06:20:59;7.30;;;6.30;;
19189;SDS011;9727;50.200;19.038;2023-05-16T06:23:27;10.30;;;6.87;;
19189;SDS011;9727;50.200;19.038;2023-05-16T06:25:54;8.60;;;6.67;;
19189;SDS011;9727;50.200;19.038;2023-05-16T06:28:22;11.53;;;6.53;;
19189;SDS011;9727;50.200;19.038;2023-05-16T06:30:49;7.27;;;5.90;;
19189;SDS011;9727;50.200;19.038;2023-05-16T06:33:16;9.33;;;6.87;;
19189;SDS011;9727;50.200;19.038;2023-05-16T06:35:44;9.60;;;6.93;;
19189;SDS011;9727;50.200;19.038;2023-05-16T06:38:12;10.53;;;6.47;;
19189;SDS011;9727;50.200;19.038;2023-05-16T06:40:38;9.63;;;6.83;;
19189;SDS011;9727;50.200;19.038;2023-05-16T06:43:05;8.50;;;7.00;;
19189;SDS011;9727;50.200;19.038;2023-05-16T06:45:41;8.83;;;6.47;;
19189;SDS011;9727;50.200;19.038;2023-05-16T06:48:07;9.50;;;6.67;;
19189;SDS011;9727;50.200;19.038;2023-05-16T06:50:34;7.60;;;6.43;;
19189;SDS011;9727;50.200;19.038;2023-05-16T06:53:05;8.67;;;7.13;;
19189;SDS011;9727;50.200;19.038;2023-05-16T06:55:31;8.67;;;5.97;;
19189;SDS011;9727;50.200;19.038;2023-05-16T06:57:58;9.17;;;6.93;;
19189;SDS011;9727;50.200;19.038;2023-05-16T07:00:29;10.23;;;7.40;;
19189;SDS011;9727;50.200;19.038;2023-05-16T07:02:55;11.80;;;7.40;;
19189;SDS011;9727;50.200;19.038;2023-05-16T07:05:22;10.33;;;6.90;;
19189;SDS011;9727;50.200;19.038;2023-05-16T07:07:48;10.43;;;7.93;;
19189;SDS011;9727;50.200;19.038;2023-05-16T07:10:16;9.77;;;7.03;;
19189;SDS011;9727;50.200;19.038;2023-05-16T07:12:43;9.03;;;6.80;;
19189;SDS011;9727;50.200;19.038;2023-05-16T07:15:10;9.70;;;7.23;;
19189;SDS011;9727;50.200;19.038;2023-05-16T07:17:37;8.50;;;7.27;;
19189;SDS011;9727;50.200;19.038;2023-05-16T07:20:04;8.60;;;6.60;;
19189;SDS011;9727;50.200;19.038;2023-05-16T07:22:30;8.43;;;6.57;;
19189;SDS011;9727;50.200;19.038;2023-05-16T07:24:57;10.83;;;6.60;;
19189;SDS011;9727;50.200;19.038;2023-05-16T07:27:29;7.50;;;6.27;;
19189;SDS011;9727;50.200;19.038;2023-05-16T07:29:56;7.13;;;6.00;;
19189;SDS011;9727;50.200;19.038;2023-05-16T07:32:23;10.80;;;6.50;;
19189;SDS011;9727;50.200;19.038;2023-05-16T07:34:49;7.80;;;6.60;;
19189;SDS011;9727;50.200;19.038;2023-05-16T07:37:16;8.10;;;5.30;;
19189;SDS011;9727;50.200;19.038;2023-05-16T07:39:44;7.80;;;6.50;;
19189;SDS011;9727;50.200;19.038;2023-05-16T07:42:11;8.17;;;6.30;;
19189;SDS011;9727;50.200;19.038;2023-05-16T07:44:39;8.77;;;6.57;;
19189;SDS011;9727;50.200;19.038;2023-05-16T07:47:05;9.00;;;6.83;;
19189;SDS011;9727;50.200;19.038;2023-05-16T07:49:32;8.57;;;6.27;;
19189;SDS011;9727;50.200;19.038;2023-05-16T07:51:59;7.73;;;6.20;;
19189;SDS011;9727;50.200;19.038;2023-05-16T07:54:26;7.60;;;6.27;;
19189;SDS011;9727;50.200;19.038;2023-05-16T07:56:53;9.60;;;6.77;;
19189;SDS011;9727;50.200;19.038;2023-05-16T07:59:19;9.97;;;7.03;;
19189;SDS011;9727;50.200;19.038;2023-05-16T08:01:48;8.70;;;5.93;;
19189;SDS011;9727;50.200;19.038;2023-05-16T08:04:14;11.17;;;6.43;;
19189;SDS011;9727;50.200;19.038;2023-05-16T08:06:41;7.33;;;6.07;;
19189;SDS011;9727;50.200;19.038;2023-05-16T08:09:07;7.63;;;6.07;;
19189;SDS011;9727;50.200;19.038;2023-05-16T08:11:35;6.63;;;5.93;;
19189;SDS011;9727;50.200;19.038;2023-05-16T08:14:01;9.60;;;6.13;;
19189;SDS011;9727;50.200;19.038;2023-05-16T08:16:28;6.90;;;5.90;;
19189;SDS011;9727;50.200;19.038;2023-05-16T08:18:58;6.20;;;5.60;;
19189;SDS011;9727;50.200;19.038;2023-05-16T08:21:24;12.93;;;6.13;;
19189;SDS011;9727;50.200;19.038;2023-05-16T08:23:52;11.77;;;6.10;;
19189;SDS011;9727;50.200;19.038;2023-05-16T08:26:19;8.97;;;6.07;;
19189;SDS011;9727;50.200;19.038;2023-05-16T08:28:47;7.07;;;5.90;;
19189;SDS011;9727;50.200;19.038;2023-05-16T08:31:14;5.17;;;4.63;;
19189;SDS011;9727;50.200;19.038;2023-05-16T08:33:42;7.20;;;5.50;;
19189;SDS011;9727;50.200;19.038;2023-05-16T08:36:10;8.80;;;6.07;;
19189;SDS011;9727;50.200;19.038;2023-05-16T08:38:37;7.23;;;5.70;;
19189;SDS011;9727;50.200;19.038;2023-05-16T08:41:04;7.83;;;6.03;;
19189;SDS011;9727;50.200;19.038;2023-05-16T08:43:31;7.47;;;6.00;;
19189;SDS011;9727;50.200;19.038;2023-05-16T08:46:01;7.23;;;6.00;;
19189;SDS011;9727;50.200;19.038;2023-05-16T08:48:28;8.88;;;6.28;;
19189;SDS011;9727;50.200;19.038;2023-05-16T08:50:57;7.38;;;6.53;;
19189;SDS011;9727;50.200;19.038;2023-05-16T08:53:38;9.80;;;6.32;;
19189;SDS011;9727;50.200;19.038;2023-05-16T08:56:06;7.45;;;5.38;;
19189;SDS011;9727;50.200;19.038;2023-05-16T08:58:33;7.70;;;5.27;;
19189;SDS011;9727;50.200;19.038;2023-05-16T09:01:00;8.73;;;5.90;;
19189;SDS011;9727;50.200;19.038;2023-05-16T09:03:31;8.60;;;6.07;;
19189;SDS011;9727;50.200;19.038;2023-05-16T09:05:57;7.53;;;5.78;;
19189;SDS011;9727;50.200;19.038;2023-05-16T09:08:26;6.97;;;6.22;;
19189;SDS011;9727;50.200;19.038;2023-05-16T09:10:53;7.25;;;5.72;;
19189;SDS011;9727;50.200;19.038;2023-05-16T09:13:20;7.80;;;6.20;;
19189;SDS011;9727;50.200;19.038;2023-05-16T09:15:46;9.70;;;5.68;;
19189;SDS011;9727;50.200;19.038;2023-05-16T09:18:34;8.93;;;6.00;;
19189;SDS011;9727;50.200;19.038;2023-05-16T09:21:02;6.87;;;6.17;;
19189;SDS011;9727;50.200;19.038;2023-05-16T09:23:30;9.00;;;6.07;;
19189;SDS011;9727;50.200;19.038;2023-05-16T09:25:57;6.60;;;5.90;;
19189;SDS011;9727;50.200;19.038;2023-05-16T09:28:24;7.53;;;5.20;;
19189;SDS011;9727;50.200;19.038;2023-05-16T09:30:55;6.47;;;4.97;;
19189;SDS011;9727;50.200;19.038;2023-05-16T09:33:23;6.88;;;4.70;;
19189;SDS011;9727;50.200;19.038;2023-05-16T09:35:55;5.35;;;4.85;;
19189;SDS011;9727;50.200;19.038;2023-05-16T09:38:23;5.80;;;5.13;;
19189;SDS011;9727;50.200;19.038;2023-05-16T09:40:51;10.93;;;5.70;;
19189;SDS011;9727;50.200;19.038;2023-05-16T09:43:21;8.93;;;6.10;;
19189;SDS011;9727;50.200;19.038;2023-05-16T09:45:48;7.45;;;5.72;;
19189;SDS011;9727;50.200;19.038;2023-05-16T09:48:15;6.85;;;5.80;;
19189;SDS011;9727;50.200;19.038;2023-05-16T09:50:45;5.95;;;5.10;;
19189;SDS011;9727;50.200;19.038;2023-05-16T09:53:14;10.20;;;5.68;;
19189;SDS011;9727;50.200;19.038;2023-05-16T09:55:40;7.95;;;5.88;;
19189;SDS011;9727;50.200;19.038;2023-05-16T09:58:09;8.27;;;6.07;;
19189;SDS011;9727;50.200;19.038;2023-05-16T10:00:35;13.80;;;6.97;;
19189;SDS011;9727;50.200;19.038;2023-05-16T10:03:02;7.97;;;6.22;;
19189;SDS011;9727;50.200;19.038;2023-05-16T10:05:31;9.70;;;6.43;;
19189;SDS011;9727;50.200;19.038;2023-05-16T10:07:58;10.52;;;6.10;;
19189;SDS011;9727;50.200;19.038;2023-05-16T10:10:27;8.80;;;5.55;;
19189;SDS011;9727;50.200;19.038;2023-05-16T10:12:55;9.73;;;5.90;;
19189;SDS011;9727;50.200;19.038;2023-05-16T10:15:33;9.40;;;6.03;;
19189;SDS011;9727;50.200;19.038;2023-05-16T10:18:02;7.82;;;5.47;;
19189;SDS011;9727;50.200;19.038;2023-05-16T10:20:32;7.65;;;5.43;;
19189;SDS011;9727;50.200;19.038;2023-05-16T10:22:58;10.77;;;5.70;;
19189;SDS011;9727;50.200;19.038;2023-05-16T10:25:28;6.32;;;4.90;;
19189;SDS011;9727;50.200;19.038;2023-05-16T10:27:57;6.60;;;5.45;;
19189;SDS011;9727;50.200;19.038;2023-05-16T10:30:24;5.75;;;4.85;;
19189;SDS011;9727;50.200;19.038;2023-05-16T10:32:54;6.45;;;4.43;;
19189;SDS011;9727;50.200;19.038;2023-05-16T10:35:21;5.10;;;4.50;;
19189;SDS011;9727;50.200;19.038;2023-05-16T10:37:48;6.28;;;4.93;;
19189;SDS011;9727;50.200;19.038;2023-05-16T10:40:15;7.57;;;4.97;;
19189;SDS011;9727;50.200;19.038;2023-05-16T10:42:43;6.65;;;5.40;;
19189;SDS011;9727;50.200;19.038;2023-05-16T10:45:15;8.40;;;5.88;;
19189;SDS011;9727;50.200;19.038;2023-05-16T10:47:49;7.55;;;6.22;;
19189;SDS011;9727;50.200;19.038;2023-05-16T10:50:30;7.50;;;5.22;;
19189;SDS011;9727;50.200;19.038;2023-05-16T10:53:09;6.10;;;5.32;;
19189;SDS011;9727;50.200;19.038;2023-05-16T10:55:39;9.48;;;5.72;;
19189;SDS011;9727;50.200;19.038;2023-05-16T10:58:06;9.10;;;6.13;;
19189;SDS011;9727;50.200;19.038;2023-05-16T11:00:33;10.02;;;6.60;;
19189;SDS011;9727;50.200;19.038;2023-05-16T11:03:03;10.02;;;5.63;;
19189;SDS011;9727;50.200;19.038;2023-05-16T11:05:31;8.32;;;6.40;;
19189;SDS011;9727;50.200;19.038;2023-05-16T11:08:02;7.75;;;6.38;;
19189;SDS011;9727;50.200;19.038;2023-05-16T11:10:29;7.43;;;5.70;;
19189;SDS011;9727;50.200;19.038;2023-05-16T11:12:57;6.55;;;5.80;;
19189;SDS011;9727;50.200;19.038;2023-05-16T11:15:31;6.93;;;6.05;;
19189;SDS011;9727;50.200;19.038;2023-05-16T11:18:05;10.80;;;6.00;;
19189;SDS011;9727;50.200;19.038;2023-05-16T11:20:39;6.55;;;5.53;;
19189;SDS011;9727;50.200;19.038;2023-05-16T11:23:19;6.70;;;5.40;;
19189;SDS011;9727;50.200;19.038;2023-05-16T11:25:47;7.95;;;5.55;;
19189;SDS011;9727;50.200;19.038;2023-05-16T11:28:15;5.85;;;5.25;;
19189;SDS011;9727;50.200;19.038;2023-05-16T11:30:43;5.88;;;4.30;;
19189;SDS011;9727;50.200;19.038;2023-05-16T11:33:10;6.78;;;4.63;;
19189;SDS011;9727;50.200;19.038;2023-05-16T11:35:39;6.82;;;5.03;;
19189;SDS011;9727;50.200;19.038;2023-05-16T11:38:11;6.97;;;4.45;;
19189;SDS011;9727;50.200;19.038;2023-05-16T11:40:42;5.28;;;4.78;;
19189;SDS011;9727;50.200;19.038;2023-05-16T11:43:09;5.78;;;5.20;;
19189;SDS011;9727;50.200;19.038;2023-05-16T11:45:37;5.65;;;4.53;;
19189;SDS011;9727;50.200;19.038;2023-05-16T11:48:04;9.23;;;5.22;;
19189;SDS011;9727;50.200;19.038;2023-05-16T11:50:33;5.75;;;5.00;;
19189;SDS011;9727;50.200;19.038;2023-05-16T11:53:01;6.28;;;4.90;;
19189;SDS011;9727;50.200;19.038;2023-05-16T11:55:29;7.45;;;5.28;;
19189;SDS011;9727;50.200;19.038;2023-05-16T11:57:56;7.43;;;4.85;;
19189;SDS011;9727;50.200;19.038;2023-05-16T12:00:23;7.50;;;5.05;;
19189;SDS011;9727;50.200;19.038;2023-05-16T12:02:51;8.73;;;5.63;;
19189;SDS011;9727;50.200;19.038;2023-05-16T12:05:18;7.60;;;5.47;;
19189;SDS011;9727;50.200;19.038;2023-05-16T12:07:49;8.73;;;6.15;;
19189;SDS011;9727;50.200;19.038;2023-05-16T12:10:20;7.88;;;5.78;;
19189;SDS011;9727;50.200;19.038;2023-05-16T12:12:47;7.85;;;5.65;;
19189;SDS011;9727;50.200;19.038;2023-05-16T12:15:15;7.90;;;6.40;;
19189;SDS011;9727;50.200;19.038;2023-05-16T12:17:42;9.32;;;6.40;;
19189;SDS011;9727;50.200;19.038;2023-05-16T12:20:10;5.80;;;5.25;;
19189;SDS011;9727;50.200;19.038;2023-05-16T12:22:38;9.70;;;6.40;;
19189;SDS011;9727;50.200;19.038;2023-05-16T12:25:20;11.13;;;6.90;;
19189;SDS011;9727;50.200;19.038;2023-05-16T12:27:47;12.13;;;7.68;;
19189;SDS011;9727;50.200;19.038;2023-05-16T12:30:15;11.05;;;8.07;;
19189;SDS011;9727;50.200;19.038;2023-05-16T12:32:42;11.98;;;8.35;;
19189;SDS011;9727;50.200;19.038;2023-05-16T12:35:09;10.98;;;7.85;;
19189;SDS011;9727;50.200;19.038;2023-05-16T12:37:37;12.48;;;7.90;;
19189;SDS011;9727;50.200;19.038;2023-05-16T12:40:04;10.80;;;8.05;;
19189;SDS011;9727;50.200;19.038;2023-05-16T12:42:33;10.40;;;8.10;;
19189;SDS011;9727;50.200;19.038;2023-05-16T12:45:00;10.10;;;7.30;;
19189;SDS011;9727;50.200;19.038;2023-05-16T12:47:34;10.88;;;7.05;;
19189;SDS011;9727;50.200;19.038;2023-05-16T12:50:02;9.57;;;6.53;;
19189;SDS011;9727;50.200;19.038;2023-05-16T12:52:28;7.03;;;5.68;;
19189;SDS011;9727;50.200;19.038;2023-05-16T12:54:55;8.20;;;5.82;;
19189;SDS011;9727;50.200;19.038;2023-05-16T12:57:21;10.93;;;5.95;;
19189;SDS011;9727;50.200;19.038;2023-05-16T12:59:50;8.18;;;5.93;;
19189;SDS011;9727;50.200;19.038;2023-05-16T13:02:16;6.93;;;5.78;;
19189;SDS011;9727;50.200;19.038;2023-05-16T13:04:46;6.57;;;5.28;;
19189;SDS011;9727;50.200;19.038;2023-05-16T13:07:13;7.70;;;5.20;;
19189;SDS011;9727;50.200;19.038;2023-05-16T13:09:41;9.88;;;5.75;;
19189;SDS011;9727;50.200;19.038;2023-05-16T13:12:09;6.15;;;5.20;;
19189;SDS011;9727;50.200;19.038;2023-05-16T13:14:35;6.28;;;4.90;;
19189;SDS011;9727;50.200;19.038;2023-05-16T13:17:03;8.30;;;4.47;;
19189;SDS011;9727;50.200;19.038;2023-05-16T13:19:30;6.10;;;3.95;;
19189;SDS011;9727;50.200;19.038;2023-05-16T13:21:57;7.32;;;4.45;;
19189;SDS011;9727;50.200;19.038;2023-05-16T13:24:24;4.63;;;3.53;;
19189;SDS011;9727;50.200;19.038;2023-05-16T13:26:51;5.85;;;4.10;;
19189;SDS011;9727;50.200;19.038;2023-05-16T13:29:18;9.32;;;3.92;;
19189;SDS011;9727;50.200;19.038;2023-05-16T13:31:45;5.47;;;4.10;;
19189;SDS011;9727;50.200;19.038;2023-05-16T13:34:29;6.03;;;4.20;;
19189;SDS011;9727;50.200;19.038;2023-05-16T13:36:56;5.55;;;3.90;;
19189;SDS011;9727;50.200;19.038;2023-05-16T13:39:23;5.30;;;4.28;;
19189;SDS011;9727;50.200;19.038;2023-05-16T13:41:49;4.70;;;4.20;;
19189;SDS011;9727;50.200;19.038;2023-05-16T13:44:17;6.15;;;5.07;;
19189;SDS011;9727;50.200;19.038;2023-05-16T13:46:44;8.63;;;5.40;;
19189;SDS011;9727;50.200;19.038;2023-05-16T13:49:11;6.05;;;5.03;;
19189;SDS011;9727;50.200;19.038;2023-05-16T13:51:39;12.77;;;6.18;;
19189;SDS011;9727;50.200;19.038;2023-05-16T13:54:06;7.68;;;5.32;;
19189;SDS011;9727;50.200;19.038;2023-05-16T13:56:33;8.52;;;5.85;;
19189;SDS011;9727;50.200;19.038;2023-05-16T13:59:01;11.40;;;6.82;;
19189;SDS011;9727;50.200;19.038;2023-05-16T14:01:28;8.00;;;5.60;;
19189;SDS011;9727;50.200;19.038;2023-05-16T14:03:55;8.13;;;6.03;;
19189;SDS011;9727;50.200;19.038;2023-05-16T14:06:22;10.23;;;5.97;;
19189;SDS011;9727;50.200;19.038;2023-05-16T14:08:51;9.18;;;6.30;;
19189;SDS011;9727;50.200;19.038;2023-05-16T14:11:17;6.75;;;5.93;;
19189;SDS011;9727;50.200;19.038;2023-05-16T14:13:55;10.02;;;6.68;;
19189;SDS011;9727;50.200;19.038;2023-05-16T14:16:22;8.02;;;6.43;;
19189;SDS011;9727;50.200;19.038;2023-05-16T14:18:51;7.47;;;6.72;;
19189;SDS011;9727;50.200;19.038;2023-05-16T14:21:18;11.30;;;7.03;;
19189;SDS011;9727;50.200;19.038;2023-05-16T14:23:44;12.05;;;6.88;;
19189;SDS011;9727;50.200;19.038;2023-05-16T14:26:13;9.35;;;6.57;;
19189;SDS011;9727;50.200;19.038;2023-05-16T14:28:42;11.07;;;6.85;;
19189;SDS011;9727;50.200;19.038;2023-05-16T14:31:09;8.13;;;7.32;;
19189;SDS011;9727;50.200;19.038;2023-05-16T14:33:35;10.57;;;7.57;;
19189;SDS011;9727;50.200;19.038;2023-05-16T14:36:02;10.47;;;8.57;;
19189;SDS011;9727;50.200;19.038;2023-05-16T14:38:29;11.00;;;9.10;;
19189;SDS011;9727;50.200;19.038;2023-05-16T14:40:56;9.50;;;8.50;;
19189;SDS011;9727;50.200;19.038;2023-05-16T14:43:24;11.17;;;8.87;;